Urb La Rosaleda I, Puerto Rico
Current Conditions -  °F | °C
As of 4:56 AM on Monday 24 Nov 2014 (Local Time) from TJSJ Reporting Station
Scattered Clouds Scattered Clouds  
Wind Chill: 77°   Ceiling: Unl
Heat Index: 78°   Visibility: 10mi
Dew Point: 75°   Wind: 7mph
Humidity: 94%   Direction: 90°E
Pressure: 29.96"   Gusts: NA
Location:  18.4519°N, 66.1817°W
Report Text: TJSJ 240856Z 09006KT 10SM SCT025 25/24 A2996 RMK AO2 RAB11E21 SLP144 P0000 60010 T02500239 55009 $
Loading
Personal Weather Stations






























Interactive Weather Map New forecast layout! Learn more

10-Day Weather Forecast

Advertisements
Track Severe Weather on mobile